sensor_id;sensor_type;location;lat;lon;timestamp;pressure;altitude;pressure_sealevel;temperature;humidity
13013;BME280;22580;57.670;12.006;2023-01-30T00:00:59;99015.25;;;11.20;100.00
13013;BME280;22580;57.670;12.006;2023-01-30T00:03:28;99024.38;;;11.78;100.00
13013;BME280;22580;57.670;12.006;2023-01-30T00:05:55;98984.50;;;11.75;100.00
13013;BME280;22580;57.670;12.006;2023-01-30T00:08:22;99049.22;;;11.71;100.00
13013;BME280;22580;57.670;12.006;2023-01-30T00:10:49;99011.22;;;11.41;100.00
13013;BME280;22580;57.670;12.006;2023-01-30T00:13:16;99034.69;;;11.99;100.00
13013;BME280;22580;57.670;12.006;2023-01-30T00:15:43;99041.03;;;11.98;100.00
13013;BME280;22580;57.670;12.006;2023-01-30T00:18:10;98995.78;;;12.29;100.00
13013;BME280;22580;57.670;12.006;2023-01-30T00:20:38;99014.94;;;11.74;100.00
13013;BME280;22580;57.670;12.006;2023-01-30T00:23:05;99016.94;;;11.98;100.00
13013;BME280;22580;57.670;12.006;2023-01-30T00:25:32;99025.69;;;12.08;100.00
13013;BME280;22580;57.670;12.006;2023-01-30T00:27:59;99026.56;;;11.39;100.00
13013;BME280;22580;57.670;12.006;2023-01-30T00:30:26;99006.94;;;12.08;100.00
13013;BME280;22580;57.670;12.006;2023-01-30T00:32:54;99032.16;;;11.98;100.00
13013;BME280;22580;57.670;12.006;2023-01-30T00:35:21;98943.34;;;11.76;100.00
13013;BME280;22580;57.670;12.006;2023-01-30T00:37:55;99031.06;;;12.17;100.00
13013;BME280;22580;57.670;12.006;2023-01-30T00:40:23;98999.44;;;12.12;100.00
13013;BME280;22580;57.670;12.006;2023-01-30T00:42:50;99026.44;;;11.93;100.00
13013;BME280;22580;57.670;12.006;2023-01-30T00:45:35;99029.88;;;11.77;100.00
13013;BME280;22580;57.670;12.006;2023-01-30T00:48:21;98997.41;;;11.54;100.00
13013;BME280;22580;57.670;12.006;2023-01-30T00:50:48;99038.91;;;11.32;100.00
13013;BME280;22580;57.670;12.006;2023-01-30T00:53:17;99035.16;;;11.69;100.00
13013;BME280;22580;57.670;12.006;2023-01-30T00:55:44;99024.75;;;11.14;100.00
13013;BME280;22580;57.670;12.006;2023-01-30T00:58:11;99009.09;;;11.27;100.00
13013;BME280;22580;57.670;12.006;2023-01-30T01:00:38;99012.28;;;11.23;100.00
13013;BME280;22580;57.670;12.006;2023-01-30T01:03:06;99001.13;;;11.35;100.00
13013;BME280;22580;57.670;12.006;2023-01-30T01:05:34;99014.84;;;11.58;100.00
13013;BME280;22580;57.670;12.006;2023-01-30T01:08:01;99004.25;;;11.48;100.00
13013;BME280;22580;57.670;12.006;2023-01-30T01:10:32;99004.41;;;11.73;100.00
13013;BME280;22580;57.670;12.006;2023-01-30T01:12:59;98970.47;;;11.22;100.00
13013;BME280;22580;57.670;12.006;2023-01-30T01:15:26;98999.69;;;11.93;99.52
13013;BME280;22580;57.670;12.006;2023-01-30T01:17:53;99011.69;;;11.37;100.00
13013;BME280;22580;57.670;12.006;2023-01-30T01:20:22;98983.09;;;11.89;99.76
13013;BME280;22580;57.670;12.006;2023-01-30T01:22:52;98990.72;;;11.50;100.00
13013;BME280;22580;57.670;12.006;2023-01-30T01:25:19;98978.91;;;11.87;100.00
13013;BME280;22580;57.670;12.006;2023-01-30T01:27:48;98990.16;;;11.72;100.00
13013;BME280;22580;57.670;12.006;2023-01-30T01:30:15;99005.19;;;11.13;100.00
13013;BME280;22580;57.670;12.006;2023-01-30T01:32:43;98901.41;;;10.91;100.00
13013;BME280;22580;57.670;12.006;2023-01-30T01:35:10;98988.19;;;11.23;100.00
13013;BME280;22580;57.670;12.006;2023-01-30T01:37:37;99000.06;;;11.20;100.00
13013;BME280;22580;57.670;12.006;2023-01-30T01:40:05;98988.41;;;11.55;100.00
13013;BME280;22580;57.670;12.006;2023-01-30T01:42:51;98968.91;;;11.71;100.00
13013;BME280;22580;57.670;12.006;2023-01-30T01:45:19;98968.44;;;11.75;100.00
13013;BME280;22580;57.670;12.006;2023-01-30T01:47:57;98981.94;;;11.66;100.00
13013;BME280;22580;57.670;12.006;2023-01-30T01:50:29;98989.59;;;11.61;100.00
13013;BME280;22580;57.670;12.006;2023-01-30T01:52:58;98971.25;;;12.00;100.00
13013;BME280;22580;57.670;12.006;2023-01-30T01:55:28;98983.81;;;11.99;100.00
13013;BME280;22580;57.670;12.006;2023-01-30T01:58:01;98965.84;;;11.84;100.00
13013;BME280;22580;57.670;12.006;2023-01-30T02:00:30;98974.66;;;11.50;100.00
13013;BME280;22580;57.670;12.006;2023-01-30T02:02:59;98980.41;;;11.37;100.00
13013;BME280;22580;57.670;12.006;2023-01-30T02:05:34;98977.91;;;11.36;100.00
13013;BME280;22580;57.670;12.006;2023-01-30T02:08:04;98959.56;;;11.75;100.00
13013;BME280;22580;57.670;12.006;2023-01-30T02:10:38;98963.91;;;12.02;100.00
13013;BME280;22580;57.670;12.006;2023-01-30T02:13:10;98956.31;;;11.89;100.00
13013;BME280;22580;57.670;12.006;2023-01-30T02:15:37;98934.63;;;11.40;100.00
13013;BME280;22580;57.670;12.006;2023-01-30T02:18:05;98947.09;;;11.24;100.00
13013;BME280;22580;57.670;12.006;2023-01-30T02:20:47;98923.28;;;11.12;100.00
13013;BME280;22580;57.670;12.006;2023-01-30T02:23:48;98937.13;;;11.08;100.00
13013;BME280;22580;57.670;12.006;2023-01-30T02:26:59;98927.41;;;11.33;100.00
13013;BME280;22580;57.670;12.006;2023-01-30T02:29:49;98905.66;;;11.02;100.00
13013;BME280;22580;57.670;12.006;2023-01-30T02:32:28;98933.84;;;11.48;100.00
13013;BME280;22580;57.670;12.006;2023-01-30T02:35:03;98921.22;;;10.63;100.00
13013;BME280;22580;57.670;12.006;2023-01-30T02:37:43;98946.53;;;10.94;100.00
13013;BME280;22580;57.670;12.006;2023-01-30T02:40:28;98914.00;;;11.25;100.00
13013;BME280;22580;57.670;12.006;2023-01-30T02:43:05;98929.16;;;11.16;99.31
13013;BME280;22580;57.670;12.006;2023-01-30T02:45:42;98934.25;;;11.61;98.12
13013;BME280;22580;57.670;12.006;2023-01-30T02:48:19;98920.94;;;11.43;97.77
13013;BME280;22580;57.670;12.006;2023-01-30T02:50:52;98907.19;;;11.38;97.05
13013;BME280;22580;57.670;12.006;2023-01-30T02:53:21;98921.06;;;11.08;97.77
13013;BME280;22580;57.670;12.006;2023-01-30T02:55:48;98920.31;;;11.49;95.66
13013;BME280;22580;57.670;12.006;2023-01-30T02:58:19;98918.63;;;11.48;94.84
13013;BME280;22580;57.670;12.006;2023-01-30T03:00:59;98936.22;;;11.85;94.78
13013;BME280;22580;57.670;12.006;2023-01-30T03:03:49;98908.06;;;10.87;100.00
13013;BME280;22580;57.670;12.006;2023-01-30T03:06:37;98899.59;;;10.74;100.00
13013;BME280;22580;57.670;12.006;2023-01-30T03:09:15;98942.00;;;11.12;100.00
13013;BME280;22580;57.670;12.006;2023-01-30T03:11:49;98926.88;;;11.03;100.00
13013;BME280;22580;57.670;12.006;2023-01-30T03:14:21;98929.41;;;11.05;100.00
13013;BME280;22580;57.670;12.006;2023-01-30T03:16:53;98908.34;;;11.36;99.35
13013;BME280;22580;57.670;12.006;2023-01-30T03:19:23;98943.44;;;11.33;99.23
13013;BME280;22580;57.670;12.006;2023-01-30T03:21:50;98931.47;;;11.45;98.28
13013;BME280;22580;57.670;12.006;2023-01-30T03:24:18;98926.03;;;11.29;99.58
13013;BME280;22580;57.670;12.006;2023-01-30T03:26:48;98923.41;;;11.37;99.14
13013;BME280;22580;57.670;12.006;2023-01-30T03:29:18;98887.00;;;10.84;99.98
13013;BME280;22580;57.670;12.006;2023-01-30T03:31:45;98913.31;;;11.23;99.31
13013;BME280;22580;57.670;12.006;2023-01-30T03:34:11;98903.31;;;11.33;98.14
13013;BME280;22580;57.670;12.006;2023-01-30T03:36:40;98879.72;;;11.62;96.95
13013;BME280;22580;57.670;12.006;2023-01-30T03:39:13;98881.97;;;11.75;96.18
13013;BME280;22580;57.670;12.006;2023-01-30T03:41:41;98895.50;;;11.39;97.51
13013;BME280;22580;57.670;12.006;2023-01-30T03:44:08;98899.44;;;11.19;98.17
13013;BME280;22580;57.670;12.006;2023-01-30T03:46:34;98893.81;;;11.38;97.71
13013;BME280;22580;57.670;12.006;2023-01-30T03:49:02;98896.66;;;11.71;96.56
13013;BME280;22580;57.670;12.006;2023-01-30T03:51:29;98897.81;;;11.68;96.28
13013;BME280;22580;57.670;12.006;2023-01-30T03:53:57;98866.50;;;11.61;95.76
13013;BME280;22580;57.670;12.006;2023-01-30T03:56:24;98890.75;;;11.59;96.12
13013;BME280;22580;57.670;12.006;2023-01-30T03:58:51;98850.97;;;11.64;95.61
13013;BME280;22580;57.670;12.006;2023-01-30T04:01:18;98874.16;;;11.81;95.68
13013;BME280;22580;57.670;12.006;2023-01-30T04:03:45;98879.19;;;11.16;98.78
13013;BME280;22580;57.670;12.006;2023-01-30T04:06:12;98863.75;;;11.44;98.08
13013;BME280;22580;57.670;12.006;2023-01-30T04:08:39;98865.47;;;11.11;98.05
13013;BME280;22580;57.670;12.006;2023-01-30T04:11:07;98851.25;;;11.53;96.83
13013;BME280;22580;57.670;12.006;2023-01-30T04:13:34;98866.00;;;11.57;96.33
13013;BME280;22580;57.670;12.006;2023-01-30T04:16:20;98900.69;;;11.41;96.06
13013;BME280;22580;57.670;12.006;2023-01-30T04:18:47;98858.53;;;10.75;97.60
13013;BME280;22580;57.670;12.006;2023-01-30T04:21:14;98815.16;;;10.81;95.80
13013;BME280;22580;57.670;12.006;2023-01-30T04:23:41;98847.13;;;10.91;95.71
13013;BME280;22580;57.670;12.006;2023-01-30T04:26:10;98818.56;;;10.91;94.84
13013;BME280;22580;57.670;12.006;2023-01-30T04:28:38;98804.31;;;11.16;94.36
13013;BME280;22580;57.670;12.006;2023-01-30T04:31:06;98829.34;;;11.07;93.95
13013;BME280;22580;57.670;12.006;2023-01-30T04:33:33;98815.16;;;10.81;96.01
13013;BME280;22580;57.670;12.006;2023-01-30T04:36:02;98788.50;;;10.45;94.69
13013;BME280;22580;57.670;12.006;2023-01-30T04:38:30;98805.38;;;10.98;93.46
13013;BME280;22580;57.670;12.006;2023-01-30T04:40:58;98802.63;;;10.56;92.67
13013;BME280;22580;57.670;12.006;2023-01-30T04:43:27;98823.91;;;10.91;91.69
13013;BME280;22580;57.670;12.006;2023-01-30T04:45:54;98822.75;;;11.36;89.84
13013;BME280;22580;57.670;12.006;2023-01-30T04:48:23;98801.19;;;10.95;90.32
13013;BME280;22580;57.670;12.006;2023-01-30T04:50:51;98826.31;;;11.02;90.88
13013;BME280;22580;57.670;12.006;2023-01-30T04:53:19;98828.88;;;10.86;92.48
13013;BME280;22580;57.670;12.006;2023-01-30T04:55:46;98818.06;;;11.30;91.64
13013;BME280;22580;57.670;12.006;2023-01-30T04:58:14;98807.84;;;10.65;94.20
13013;BME280;22580;57.670;12.006;2023-01-30T05:00:42;98814.69;;;11.20;94.35
13013;BME280;22580;57.670;12.006;2023-01-30T05:03:09;98805.88;;;10.93;95.28
13013;BME280;22580;57.670;12.006;2023-01-30T05:05:36;98777.97;;;10.96;95.79
13013;BME280;22580;57.670;12.006;2023-01-30T05:08:04;98808.38;;;11.37;95.50
13013;BME280;22580;57.670;12.006;2023-01-30T05:10:31;98799.78;;;11.09;96.20
13013;BME280;22580;57.670;12.006;2023-01-30T05:13:01;98777.78;;;10.63;98.15
13013;BME280;22580;57.670;12.006;2023-01-30T05:15:28;98797.19;;;11.33;96.50
13013;BME280;22580;57.670;12.006;2023-01-30T05:17:57;98800.53;;;11.35;96.77
13013;BME280;22580;57.670;12.006;2023-01-30T05:20:24;98795.25;;;11.52;96.36
13013;BME280;22580;57.670;12.006;2023-01-30T05:22:51;98750.53;;;10.86;98.41
13013;BME280;22580;57.670;12.006;2023-01-30T05:25:18;98798.72;;;11.02;100.00
13013;BME280;22580;57.670;12.006;2023-01-30T05:27:45;98714.19;;;10.15;100.00
13013;BME280;22580;57.670;12.006;2023-01-30T05:30:12;98730.97;;;10.25;100.00
13013;BME280;22580;57.670;12.006;2023-01-30T05:32:39;98731.63;;;10.79;99.26
13013;BME280;22580;57.670;12.006;2023-01-30T05:35:08;98785.84;;;10.97;98.74
13013;BME280;22580;57.670;12.006;2023-01-30T05:37:35;98769.63;;;10.65;99.20
13013;BME280;22580;57.670;12.006;2023-01-30T05:40:04;98764.19;;;11.08;96.97
13013;BME280;22580;57.670;12.006;2023-01-30T05:42:31;98759.88;;;11.15;96.31
13013;BME280;22580;57.670;12.006;2023-01-30T05:44:58;98791.63;;;10.84;98.19
13013;BME280;22580;57.670;12.006;2023-01-30T05:47:25;98711.75;;;10.81;97.06
13013;BME280;22580;57.670;12.006;2023-01-30T05:49:52;98755.72;;;10.87;98.58
13013;BME280;22580;57.670;12.006;2023-01-30T05:52:20;98758.03;;;11.16;96.89
13013;BME280;22580;57.670;12.006;2023-01-30T05:54:47;98764.28;;;10.65;98.42
13013;BME280;22580;57.670;12.006;2023-01-30T05:57:14;98778.53;;;11.07;96.56
13013;BME280;22580;57.670;12.006;2023-01-30T05:59:41;98768.47;;;10.67;96.90
13013;BME280;22580;57.670;12.006;2023-01-30T06:02:08;98774.16;;;10.72;96.15
13013;BME280;22580;57.670;12.006;2023-01-30T06:04:35;98700.53;;;10.44;95.40
13013;BME280;22580;57.670;12.006;2023-01-30T06:07:02;98705.25;;;10.50;95.26
13013;BME280;22580;57.670;12.006;2023-01-30T06:09:33;98821.03;;;10.41;98.11
13013;BME280;22580;57.670;12.006;2023-01-30T06:12:00;98761.91;;;10.62;99.17
13013;BME280;22580;57.670;12.006;2023-01-30T06:14:27;98772.22;;;10.82;98.01
13013;BME280;22580;57.670;12.006;2023-01-30T06:16:54;98719.34;;;10.60;96.48
13013;BME280;22580;57.670;12.006;2023-01-30T06:19:21;98680.47;;;10.32;97.00
13013;BME280;22580;57.670;12.006;2023-01-30T06:21:48;98699.69;;;10.35;97.88
13013;BME280;22580;57.670;12.006;2023-01-30T06:24:15;98714.88;;;10.69;97.73
13013;BME280;22580;57.670;12.006;2023-01-30T06:26:43;98768.06;;;11.22;97.28
13013;BME280;22580;57.670;12.006;2023-01-30T06:29:10;98732.44;;;11.13;96.80
13013;BME280;22580;57.670;12.006;2023-01-30T06:31:37;98725.19;;;10.64;99.17
13013;BME280;22580;57.670;12.006;2023-01-30T06:34:04;98763.34;;;11.08;99.36
13013;BME280;22580;57.670;12.006;2023-01-30T06:36:30;98741.16;;;11.15;98.71
13013;BME280;22580;57.670;12.006;2023-01-30T06:38:57;98756.56;;;11.38;98.45
13013;BME280;22580;57.670;12.006;2023-01-30T06:41:24;98741.72;;;11.52;97.72
13013;BME280;22580;57.670;12.006;2023-01-30T06:43:53;98756.22;;;11.25;99.65
13013;BME280;22580;57.670;12.006;2023-01-30T06:46:20;98669.41;;;10.61;100.00
13013;BME280;22580;57.670;12.006;2023-01-30T06:48:47;98724.66;;;10.60;100.00
13013;BME280;22580;57.670;12.006;2023-01-30T06:51:14;98731.41;;;11.06;100.00
13013;BME280;22580;57.670;12.006;2023-01-30T06:53:41;98727.81;;;11.40;99.62
13013;BME280;22580;57.670;12.006;2023-01-30T06:56:08;98730.84;;;11.45;98.07
13013;BME280;22580;57.670;12.006;2023-01-30T06:58:35;98719.16;;;10.62;99.90
13013;BME280;22580;57.670;12.006;2023-01-30T07:01:03;98748.81;;;10.76;100.00
13013;BME280;22580;57.670;12.006;2023-01-30T07:03:30;98755.94;;;10.68;100.00
13013;BME280;22580;57.670;12.006;2023-01-30T07:05:57;98738.09;;;11.02;97.45
13013;BME280;22580;57.670;12.006;2023-01-30T07:08:24;98737.56;;;10.99;97.12
13013;BME280;22580;57.670;12.006;2023-01-30T07:10:53;98729.88;;;10.96;96.50
13013;BME280;22580;57.670;12.006;2023-01-30T07:13:20;98732.84;;;10.93;96.98
13013;BME280;22580;57.670;12.006;2023-01-30T07:15:49;98742.50;;;10.86;97.11
13013;BME280;22580;57.670;12.006;2023-01-30T07:18:24;98740.66;;;10.26;98.77
13013;BME280;22580;57.670;12.006;2023-01-30T07:20:51;98739.13;;;11.09;96.97
13013;BME280;22580;57.670;12.006;2023-01-30T07:23:18;98734.41;;;11.03;95.60
13013;BME280;22580;57.670;12.006;2023-01-30T07:25:45;98731.28;;;11.16;94.69
13013;BME280;22580;57.670;12.006;2023-01-30T07:28:12;98752.59;;;11.00;95.02
13013;BME280;22580;57.670;12.006;2023-01-30T07:30:39;98768.53;;;11.09;94.89
13013;BME280;22580;57.670;12.006;2023-01-30T07:33:06;98750.97;;;11.07;94.33
13013;BME280;22580;57.670;12.006;2023-01-30T07:35:35;98742.66;;;10.84;94.67
13013;BME280;22580;57.670;12.006;2023-01-30T07:38:03;98765.09;;;10.91;95.11
13013;BME280;22580;57.670;12.006;2023-01-30T07:40:30;98727.28;;;10.78;95.84
13013;BME280;22580;57.670;12.006;2023-01-30T07:42:58;98726.19;;;10.97;95.17
13013;BME280;22580;57.670;12.006;2023-01-30T07:45:29;98743.91;;;10.98;96.72
13013;BME280;22580;57.670;12.006;2023-01-30T07:47:57;98728.63;;;10.82;96.13
13013;BME280;22580;57.670;12.006;2023-01-30T07:50:23;98737.28;;;11.10;95.28
13013;BME280;22580;57.670;12.006;2023-01-30T07:52:52;98750.72;;;11.26;95.41
13013;BME280;22580;57.670;12.006;2023-01-30T07:55:19;98761.06;;;11.21;95.60
13013;BME280;22580;57.670;12.006;2023-01-30T07:57:46;98742.72;;;10.92;96.14
13013;BME280;22580;57.670;12.006;2023-01-30T08:00:14;98771.72;;;10.79;95.86
13013;BME280;22580;57.670;12.006;2023-01-30T08:02:41;98762.25;;;10.93;95.33
13013;BME280;22580;57.670;12.006;2023-01-30T08:05:08;98743.56;;;10.93;95.34
13013;BME280;22580;57.670;12.006;2023-01-30T08:07:35;98685.84;;;10.40;96.22
13013;BME280;22580;57.670;12.006;2023-01-30T08:10:04;98763.09;;;10.93;96.17
13013;BME280;22580;57.670;12.006;2023-01-30T08:12:31;98763.03;;;11.11;95.59
13013;BME280;22580;57.670;12.006;2023-01-30T08:14:58;98776.38;;;11.11;95.43
13013;BME280;22580;57.670;12.006;2023-01-30T08:17:25;98730.31;;;10.83;96.85
13013;BME280;22580;57.670;12.006;2023-01-30T08:19:52;98664.66;;;10.38;97.56
13013;BME280;22580;57.670;12.006;2023-01-30T08:22:19;98703.66;;;10.99;96.66
13013;BME280;22580;57.670;12.006;2023-01-30T08:24:46;98730.53;;;11.48;95.05
13013;BME280;22580;57.670;12.006;2023-01-30T08:27:14;98744.94;;;10.71;97.91
13013;BME280;22580;57.670;12.006;2023-01-30T08:29:42;98765.94;;;10.92;98.09
13013;BME280;22580;57.670;12.006;2023-01-30T08:32:09;98767.47;;;10.42;99.82
13013;BME280;22580;57.670;12.006;2023-01-30T08:34:36;98664.06;;;9.83;100.00
13013;BME280;22580;57.670;12.006;2023-01-30T08:37:03;98772.69;;;10.78;99.50
13013;BME280;22580;57.670;12.006;2023-01-30T08:39:30;98754.91;;;10.95;98.95
13013;BME280;22580;57.670;12.006;2023-01-30T08:41:57;98773.19;;;10.73;99.25
13013;BME280;22580;57.670;12.006;2023-01-30T08:44:25;98770.84;;;11.04;98.79
13013;BME280;22580;57.670;12.006;2023-01-30T08:46:52;98770.25;;;11.19;98.39
13013;BME280;22580;57.670;12.006;2023-01-30T08:49:19;98758.34;;;11.13;98.16
13013;BME280;22580;57.670;12.006;2023-01-30T08:51:47;98764.63;;;10.96;99.11
13013;BME280;22580;57.670;12.006;2023-01-30T08:54:15;98781.13;;;10.91;100.00
13013;BME280;22580;57.670;12.006;2023-01-30T08:56:42;98781.38;;;11.06;98.92
13013;BME280;22580;57.670;12.006;2023-01-30T08:59:09;98774.06;;;11.16;98.46
13013;BME280;22580;57.670;12.006;2023-01-30T09:01:37;98768.78;;;10.64;99.34
13013;BME280;22580;57.670;12.006;2023-01-30T09:04:04;98790.00;;;11.26;98.03
13013;BME280;22580;57.670;12.006;2023-01-30T09:06:31;98786.59;;;10.81;98.92
13013;BME280;22580;57.670;12.006;2023-01-30T09:08:59;98777.69;;;10.73;98.87
13013;BME280;22580;57.670;12.006;2023-01-30T09:11:26;98758.09;;;10.64;98.40
13013;BME280;22580;57.670;12.006;2023-01-30T09:13:53;98783.75;;;10.83;97.95
13013;BME280;22580;57.670;12.006;2023-01-30T09:16:19;98806.66;;;10.86;97.29
13013;BME280;22580;57.670;12.006;2023-01-30T09:18:48;98796.31;;;10.91;97.21
13013;BME280;22580;57.670;12.006;2023-01-30T09:21:15;98795.06;;;11.03;96.45
13013;BME280;22580;57.670;12.006;2023-01-30T09:23:42;98792.97;;;10.63;97.29
13013;BME280;22580;57.670;12.006;2023-01-30T09:26:09;98775.63;;;10.93;97.49
13013;BME280;22580;57.670;12.006;2023-01-30T09:28:35;98776.41;;;11.19;97.24
13013;BME280;22580;57.670;12.006;2023-01-30T09:31:03;98791.91;;;11.07;99.11
13013;BME280;22580;57.670;12.006;2023-01-30T09:33:30;98783.63;;;11.35;98.65
13013;BME280;22580;57.670;12.006;2023-01-30T09:35:58;98789.81;;;11.35;99.00
13013;BME280;22580;57.670;12.006;2023-01-30T09:38:25;98789.56;;;11.04;100.00
13013;BME280;22580;57.670;12.006;2023-01-30T09:43:56;98806.97;;;10.82;100.00
13013;BME280;22580;57.670;12.006;2023-01-30T09:46:33;98799.41;;;11.46;99.51
13013;BME280;22580;57.670;12.006;2023-01-30T09:49:15;98806.09;;;11.92;97.30
13013;BME280;22580;57.670;12.006;2023-01-30T09:51:57;98815.09;;;11.83;97.35
13013;BME280;22580;57.670;12.006;2023-01-30T09:54:28;98808.09;;;11.48;97.36
13013;BME280;22580;57.670;12.006;2023-01-30T09:57:10;98789.44;;;11.64;97.19
13013;BME280;22580;57.670;12.006;2023-01-30T09:59:47;98762.31;;;11.59;96.08
13013;BME280;22580;57.670;12.006;2023-01-30T10:02:28;98784.00;;;11.40;97.36
13013;BME280;22580;57.670;12.006;2023-01-30T10:04:56;98790.78;;;11.68;96.03
13013;BME280;22580;57.670;12.006;2023-01-30T10:07:31;98767.16;;;11.05;97.69
13013;BME280;22580;57.670;12.006;2023-01-30T10:10:07;98785.66;;;11.41;97.03
13013;BME280;22580;57.670;12.006;2023-01-30T10:12:44;98807.59;;;11.44;95.92
13013;BME280;22580;57.670;12.006;2023-01-30T10:15:26;98822.09;;;11.34;95.87
13013;BME280;22580;57.670;12.006;2023-01-30T10:18:17;98823.03;;;11.16;95.52
13013;BME280;22580;57.670;12.006;2023-01-30T10:20:57;98795.34;;;11.34;94.70
13013;BME280;22580;57.670;12.006;2023-01-30T10:23:44;98818.31;;;11.53;94.16
13013;BME280;22580;57.670;12.006;2023-01-30T10:26:17;98832.09;;;11.32;95.03
13013;BME280;22580;57.670;12.006;2023-01-30T10:28:54;98805.84;;;11.69;92.85
13013;BME280;22580;57.670;12.006;2023-01-30T10:31:27;98819.66;;;11.57;93.10
13013;BME280;22580;57.670;12.006;2023-01-30T10:33:58;98808.28;;;12.05;91.93
13013;BME280;22580;57.670;12.006;2023-01-30T10:36:33;98795.81;;;11.71;91.88
13013;BME280;22580;57.670;12.006;2023-01-30T10:39:11;98821.00;;;11.53;91.71
13013;BME280;22580;57.670;12.006;2023-01-30T10:41:51;98820.72;;;11.72;91.72
13013;BME280;22580;57.670;12.006;2023-01-30T10:44:21;98821.41;;;11.74;91.05
13013;BME280;22580;57.670;12.006;2023-01-30T10:47:20;98847.31;;;11.73;91.29
13013;BME280;22580;57.670;12.006;2023-01-30T10:49:52;98830.31;;;11.82;90.31
13013;BME280;22580;57.670;12.006;2023-01-30T10:52:26;98861.78;;;11.89;90.33
13013;BME280;22580;57.670;12.006;2023-01-30T10:55:02;98823.91;;;11.75;90.47
13013;BME280;22580;57.670;12.006;2023-01-30T10:57:41;98845.41;;;11.49;89.80
13013;BME280;22580;57.670;12.006;2023-01-30T11:00:18;98842.38;;;11.44;89.28
13013;BME280;22580;57.670;12.006;2023-01-30T11:02:57;98878.50;;;11.82;88.14
13013;BME280;22580;57.670;12.006;2023-01-30T11:05:26;98827.34;;;11.52;86.48
13013;BME280;22580;57.670;12.006;2023-01-30T11:07:56;98876.22;;;11.62;85.80
13013;BME280;22580;57.670;12.006;2023-01-30T11:10:25;98874.22;;;12.06;84.59
13013;BME280;22580;57.670;12.006;2023-01-30T11:12:54;98877.75;;;12.31;83.92
13013;BME280;22580;57.670;12.006;2023-01-30T11:15:24;98864.69;;;12.20;83.16
13013;BME280;22580;57.670;12.006;2023-01-30T11:18:05;98876.56;;;12.09;83.96
13013;BME280;22580;57.670;12.006;2023-01-30T11:20:38;98881.59;;;12.12;84.63
13013;BME280;22580;57.670;12.006;2023-01-30T11:23:07;98874.09;;;11.73;85.92
13013;BME280;22580;57.670;12.006;2023-01-30T11:25:47;98890.44;;;11.96;86.48
13013;BME280;22580;57.670;12.006;2023-01-30T11:28:14;98902.81;;;12.13;86.03
13013;BME280;22580;57.670;12.006;2023-01-30T11:30:48;98860.34;;;12.43;84.94
13013;BME280;22580;57.670;12.006;2023-01-30T11:33:18;98883.63;;;12.51;85.26
13013;BME280;22580;57.670;12.006;2023-01-30T11:35:52;98884.81;;;12.56;84.90
13013;BME280;22580;57.670;12.006;2023-01-30T11:38:23;98867.22;;;12.37;84.87
13013;BME280;22580;57.670;12.006;2023-01-30T11:41:01;98884.63;;;12.50;85.60
13013;BME280;22580;57.670;12.006;2023-01-30T11:43:29;98882.13;;;12.48;85.88
13013;BME280;22580;57.670;12.006;2023-01-30T11:45:56;98901.03;;;12.38;86.10
13013;BME280;22580;57.670;12.006;2023-01-30T11:48:27;98888.34;;;12.81;84.66
13013;BME280;22580;57.670;12.006;2023-01-30T11:50:58;98902.84;;;12.05;85.13
13013;BME280;22580;57.670;12.006;2023-01-30T11:53:31;98900.91;;;12.64;84.23
13013;BME280;22580;57.670;12.006;2023-01-30T11:56:04;98876.09;;;12.62;82.49
13013;BME280;22580;57.670;12.006;2023-01-30T11:58:36;98913.97;;;13.00;81.97
13013;BME280;22580;57.670;12.006;2023-01-30T12:01:04;98908.41;;;13.18;82.25
13013;BME280;22580;57.670;12.006;2023-01-30T12:03:44;98923.66;;;13.09;80.48
13013;BME280;22580;57.670;12.006;2023-01-30T12:06:21;98914.47;;;12.79;81.91
13013;BME280;22580;57.670;12.006;2023-01-30T12:08:51;98909.06;;;13.28;80.79
13013;BME280;22580;57.670;12.006;2023-01-30T12:11:29;98926.00;;;12.47;81.36
13013;BME280;22580;57.670;12.006;2023-01-30T12:14:12;98904.72;;;12.29;81.23
13013;BME280;22580;57.670;12.006;2023-01-30T12:16:51;98940.41;;;13.11;79.65
13013;BME280;22580;57.670;12.006;2023-01-30T12:19:28;98949.09;;;12.40;78.92
13013;BME280;22580;57.670;12.006;2023-01-30T12:22:02;98917.50;;;12.68;78.63
13013;BME280;22580;57.670;12.006;2023-01-30T12:24:38;98930.22;;;12.66;80.05
13013;BME280;22580;57.670;12.006;2023-01-30T12:27:14;98938.59;;;12.87;78.03
13013;BME280;22580;57.670;12.006;2023-01-30T12:29:52;98944.94;;;13.02;77.95
13013;BME280;22580;57.670;12.006;2023-01-30T12:32:21;98940.28;;;12.80;78.47
13013;BME280;22580;57.670;12.006;2023-01-30T12:34:51;98949.31;;;12.55;79.11
13013;BME280;22580;57.670;12.006;2023-01-30T12:37:34;98920.84;;;12.62;78.74
13013;BME280;22580;57.670;12.006;2023-01-30T12:40:12;98941.09;;;12.56;78.31
13013;BME280;22580;57.670;12.006;2023-01-30T12:43:13;98950.84;;;12.73;77.73
13013;BME280;22580;57.670;12.006;2023-01-30T12:45:46;98945.47;;;13.22;76.58
13013;BME280;22580;57.670;12.006;2023-01-30T12:48:33;98930.16;;;12.25;77.49
13013;BME280;22580;57.670;12.006;2023-01-30T12:51:13;98980.31;;;12.82;79.88
13013;BME280;22580;57.670;12.006;2023-01-30T12:53:56;98935.13;;;12.04;78.29
13013;BME280;22580;57.670;12.006;2023-01-30T12:56:41;98946.47;;;12.72;77.34
13013;BME280;22580;57.670;12.006;2023-01-30T12:59:19;98961.09;;;12.11;78.81
13013;BME280;22580;57.670;12.006;2023-01-30T13:02:03;98971.31;;;12.16;78.91
13013;BME280;22580;57.670;12.006;2023-01-30T13:04:45;98970.31;;;12.25;79.51
13013;BME280;22580;57.670;12.006;2023-01-30T13:07:23;98966.41;;;12.62;77.77
13013;BME280;22580;57.670;12.006;2023-01-30T13:10:00;98975.00;;;12.23;77.37